Aeroporto :
LOGIN :

Iscrizione | Disclaimer

   EN    FR    IT 

 










Sommario :    VFR   VFR Marginale   IFR   IFR Intensivo   IFR Molto Intensivo
Visibilità : 
Base nubi : 
>= 8 km
>= 3000ft
5 / 8 km
1000 / 3000 ft
1500m / 5 km
500 / 1000 ft
800 / 1500m
200 / 500 ft
< 800m
< 200 ft
Simboli :   Temporali  Nebbia  Neve Forte  Precipitazioni Forti  Vento > 20 kt
SIGMETs :   Varie  Temporali  Ghiacco  Turbolenza  Onda orograficha  Ceneri Vulcaniche







- Altitudine del aeroporto : 659 ft
- Codice IATA : LGG


EBLG - Liège

ULTIMO METAR :
  • 261550Z 32004KT 260V020 9999 FEW025 BKN042 08/01 Q1031 NOSIG

METARs OBSOLETI :
  • 261520Z 34004KT 300V010 9999 FEW025 BKN042 08/01 Q1031 NOSIG
  • 261450Z 32006KT 9999 FEW025 BKN042 08/01 Q1031 NOSIG
  • 261420Z 33007KT 300V360 9999 FEW025 BKN039 08/01 Q1031 NOSIG
  • 261350Z 33006KT 290V020 9999 SCT025 BKN046 08/02 Q1031 NOSIG
  • 261320Z 31006KT 280V350 9999 FEW025 BKN046 08/02 Q1031 NOSIG

TAF TAF EBLG
Valido dal 26 a 12 ore il 27 a 18 ore UTC


261110Z 2612/2718 34007KT 9999 SCT025 BKN040
PROB30
TEMPO 2703/2707 2000 MIFG
Nessun NOTAM noto per questo aeroporto.



MetMap, La meteo Aeronautica in un colpo d'occhio ! - Copyright ORBIFLY Dicembre 2007 - Disclaimer

ORBIFLY MET'MAP TEAM :

Programmazione e sviluppo : Alexandra Zaïnal
Concezione e sviluppo : Baudouin d'Aumeries
Co-Programmazione e sviluppo : Marc-Olivier Méhu
Supporto tecnico e logistico : Manuel Goepfert
Aiuto per la traduzione : Arnaldo La Scala

Contatto : metmap@orbifly.com




FONTI E CREDITI :

   NOAA